Soleil Weather Down

Nearby METAR Reports

 

KCNI - Canton/Cherokee, Georgia, USA
Distance from station: ENE 6mi, 10km
Updated: Wed, 11-Dec-2019 10:30pm EST
Clear
Clear
 Wind from ENE
Wind: ENE 3 mph , 6 km/h
Temperature: 39°F , 4°C
Dew Point: 21°F , -6°C
Humidity: 48%
Barometer: 30.50 inHg , 1032.8 hPa
Clouds: Clear
Visibility: 10 miles , 16 km
2019/12/12 03:30 KCNI 120330Z AUTO 06003KT 10SM CLR 04/M06 A3050 RMK AO2
KRYY - Marietta Mccolum, Georgia, USA
Distance from station: SSW 18mi, 29km
Updated: Wed, 11-Dec-2019 10:50pm EST
Clear
Clear
 Wind from calm
Wind: Calm
Temperature: 32°F , 0°C
Dew Point: 27°F , -3°C
Humidity: 80%
Barometer: 30.51 inHg , 1033.2 hPa
Clouds: Clear
Visibility: 10 miles , 16 km
2019/12/12 03:50 KRYY 120350Z AUTO 00000KT 10SM CLR 00/M03 A3051 RMK AO2 SLP051 T00001028 400941006 FZRANO PNO $
KVPC - Cartersville, Georgia, USA
Distance from station: WSW 22mi, 35km
Updated: Wed, 11-Dec-2019 10:53pm EST
Clear
Clear
 Wind from calm
Wind: Calm
Temperature: 30°F , -1°C
Dew Point: 25°F , -4°C
Humidity: 80%
Barometer: 30.52 inHg , 1033.5 hPa
Clouds: Clear
Visibility: 10 miles , 16 km
2019/12/12 03:53 KVPC 120353Z AUTO 00000KT 10SM CLR M01/M04 A3052 RMK AO2 SLP335 T10061039
 
KMGE - Dobbins Afb/Mari, Georgia, USA
Distance from station: S 24mi, 39km
Updated: Wed, 11-Dec-2019 9:56pm EST
Clear
Clear
 Wind from ENE
Wind: ENE 2 mph , 4 km/h
Temperature: 34°F , 1°C
Dew Point: 25°F , -4°C
Humidity: 70%
Barometer: 30.48 inHg , 1032.2 hPa
Clouds: Clear
Visibility: 10 miles , 16 km
2019/12/12 02:56 KMGE 120256Z 06002KT 10SM CLR 01/M04 A3048 RMK AO2A SLP332 T00051042 52008 $
KPDK - Peachtree/Dekalb, Georgia, USA
Distance from station: SSE 29mi, 47km
Updated: Wed, 11-Dec-2019 10:53pm EST
Clear
Clear
 Wind from NE
Wind: NE 5 mph , 7 km/h
Temperature: 37°F , 3°C
Wind Chill: 33°F , 1°C
Dew Point: 27°F , -3°C
Humidity: 65%
Barometer: 30.49 inHg , 1032.5 hPa
Clouds: Clear
Visibility: 10 miles , 16 km
2019/12/12 03:53 KPDK 120353Z AUTO 05004KT 10SM CLR 03/M03 A3049 RMK AO2 SLP341 T00331028
KFTY - Atlanta/Fulton, Georgia, USA
Distance from station: S 34mi, 54km
Updated: Wed, 11-Dec-2019 10:53pm EST
Clear
Clear
 Wind from calm
Wind: Calm
Temperature: 32°F , 0°C
Dew Point: 27°F , -3°C
Humidity: 80%
Barometer: 30.50 inHg , 1032.8 hPa
Clouds: Clear
Visibility: 10 miles , 16 km
2019/12/12 03:53 KFTY 120353Z 00000KT 10SM CLR 00/M03 A3050 RMK AO2 SLP333 T00001028
 
KPUJ - Atlanta/Paulding, Georgia, USA
Distance from station: SW 34mi, 55km
Updated: Wed, 11-Dec-2019 10:55pm EST
Clear
Clear
 Wind from NNE
Wind: NNE 6 mph , 9 km/h
Temperature: 34°F , 1°C
Wind Chill: 29°F , -2°C
Dew Point: 23°F , -5°C
Humidity: 65%
Barometer: 30.48 inHg , 1032.2 hPa
Clouds: Clear
Visibility: 10 miles , 16 km
2019/12/12 03:55 KPUJ 120355Z AUTO 03005KT 10SM CLR 01/M05 A3048 RMK AO2
KDNN - Dalton, Georgia, USA
Distance from station: NW 37mi, 59km
Updated: Wed, 11-Dec-2019 10:55pm EST
Clear
Clear
 Wind from calm
Wind: Calm
Temperature: 32°F , 0°C
Dew Point: 27°F , -3°C
Humidity: 80%
Barometer: 30.54 inHg , 1034.2 hPa
Clouds: Clear
Visibility: 10 miles , 16 km
2019/12/12 03:55 KDNN 120355Z AUTO 00000KT 10SM CLR 00/M03 A3054 RMK AO2
KLZU - Lawrenceville, Georgia, USA
Distance from station: ESE 37mi, 59km
Updated: Wed, 11-Dec-2019 10:56pm EST
Clear
Clear
 Wind from calm
Wind: Calm
Temperature: 34°F , 1°C
Dew Point: 30°F , -1°C
Humidity: 87%
Barometer: 30.50 inHg , 1032.8 hPa
Clouds: Clear
Visibility: 10 miles , 16 km
2019/12/12 03:56 KLZU 120356Z AUTO 00000KT 10SM CLR 01/M01 A3050 RMK AO2 SLP346 T00111006 FZRANO
 
KRMG - Rome, Georgia, USA
Distance from station: W 38mi, 61km
Updated: Wed, 11-Dec-2019 10:53pm EST
Clear
Clear
 Wind from NNE
Wind: NNE 5 mph , 7 km/h
Temperature: 30°F , -1°C
Wind Chill: 25°F , -4°C
Dew Point: 25°F , -4°C
Humidity: 80%
Barometer: 30.51 inHg , 1033.2 hPa
Clouds: Clear
Visibility: 10 miles , 16 km
2019/12/12 03:53 KRMG 120353Z AUTO 03004KT 10SM CLR M01/M04 A3051 RMK AO2 SLP334 T10111039
KGVL - Gainesville, Georgia, USA
Distance from station: E 39mi, 62km
Updated: Wed, 11-Dec-2019 10:53pm EST
Clear
Clear
 Wind from E
Wind: E 3 mph , 6 km/h
Temperature: 37°F , 3°C
Dew Point: 28°F , -2°C
Humidity: 70%
Barometer: 30.51 inHg , 1033.2 hPa
Clouds: Clear
Visibility: 10 miles , 16 km
2019/12/12 03:53 KGVL 120353Z AUTO 08003KT 10SM CLR 03/M02 A3051 RMK AO2 SLP335 T00331022
KATL - Atlanta, Georgia, USA
Distance from station: S 44mi, 71km
Updated: Wed, 11-Dec-2019 10:52pm EST
Clear
Clear
 Wind from E
Wind: E 8 mph , 13 km/h
Temperature: 43°F , 6°C
Wind Chill: 38°F , 3°C
Dew Point: 27°F , -3°C
Humidity: 53%
Barometer: 30.48 inHg , 1032.2 hPa
Clouds: Clear
Visibility: 10 miles , 16 km
2019/12/12 03:52 KATL 120352Z 08007KT 10SM CLR 06/M03 A3048 RMK AO2 SLP329 T00561028